Time;durP1;ratioP1;P1;durP2;ratioP2;P2;SDS_P1;SDS_P2;PMS_P1;PMS_P2;Temp;Humidity;BMP_temperature;BMP_pressure;BME280_temperature;BME280_humidity;BME280_pressure;Samples;Min_cycle;Max_cycle;Signal;HPM_P1;HPM_P2
2022/04/19 00:03:00;;;;;;;2.28;1.40;;;19.80;47.60;;;;;;6171020;28;20059;-72
2022/04/19 00:06:00;;;;;;;1.80;1.38;;;19.80;47.70;;;;;;6170554;28;20450;-73
2022/04/19 00:09:01;;;;;;;1.88;1.40;;;19.80;47.70;;;;;;6170728;28;20076;-73
2022/04/19 00:12:02;;;;;;;1.73;1.40;;;19.80;47.60;;;;;;6170624;28;20114;-72
2022/04/19 00:15:04;;;;;;;2.33;1.38;;;19.80;47.70;;;;;;6170962;28;20034;-73
2022/04/19 00:18:06;;;;;;;1.52;1.08;;;19.80;47.70;;;;;;6170353;28;20027;-74
2022/04/19 00:21:07;;;;;;;1.75;1.25;;;19.80;47.70;;;;;;6170682;28;20035;-74
2022/04/19 00:24:07;;;;;;;1.50;1.02;;;19.80;47.60;;;;;;6170814;28;20038;-71
2022/04/19 00:27:08;;;;;;;1.92;1.20;;;19.80;47.60;;;;;;6170866;28;20070;-72
2022/04/19 00:30:09;;;;;;;1.63;1.23;;;19.80;47.60;;;;;;6160883;28;20041;-73
2022/04/19 00:33:10;;;;;;;1.58;1.25;;;19.80;47.70;;;;;;6146739;29;20035;-73
2022/04/19 00:36:13;;;;;;;2.00;1.25;;;19.80;47.70;;;;;;6146399;29;20030;-73
2022/04/19 00:39:14;;;;;;;1.73;1.35;;;19.80;47.80;;;;;;6147753;28;20028;-73
2022/04/19 00:42:14;;;;;;;2.05;1.35;;;19.80;47.70;;;;;;6146531;29;20391;-73
2022/04/19 00:45:15;;;;;;;1.15;1.00;;;19.70;47.50;;;;;;6128975;29;20048;-73
2022/04/19 00:48:15;;;;;;;2.17;1.30;;;19.70;47.60;;;;;;6125621;29;20036;-73
2022/04/19 00:51:17;;;;;;;2.00;1.30;;;19.70;47.60;;;;;;6127146;29;20063;-73
2022/04/19 00:54:18;;;;;;;1.98;1.23;;;19.80;47.60;;;;;;6154617;28;20031;-72
2022/04/19 00:57:19;;;;;;;1.83;1.15;;;19.70;47.60;;;;;;6175084;28;20023;-72
2022/04/19 01:00:20;;;;;;;1.75;1.20;;;19.70;47.50;;;;;;6173939;28;20051;-74
2022/04/19 01:03:21;;;;;;;1.67;1.00;;;19.70;47.60;;;;;;6173144;28;20070;-74
2022/04/19 01:06:22;;;;;;;1.65;0.98;;;19.70;47.50;;;;;;6175357;28;20070;-72
2022/04/19 01:09:24;;;;;;;1.73;1.20;;;19.70;47.50;;;;;;6174343;28;20050;-72
2022/04/19 01:15:48;;;;;;;1.58;1.00;;;19.70;47.50;;;;;;6174163;28;20446;-73
2022/04/19 01:18:49;;;;;;;;;;;19.70;47.50;;;;;;6174753;28;20031;-73
2022/04/19 01:21:57;;;;;;;2.40;0.88;;;19.70;47.50;;;;;;6174147;28;19913;-73
2022/04/19 01:24:57;;;;;;;1.40;0.95;;;19.70;47.60;;;;;;6173954;28;20393;-73
2022/04/19 01:27:58;;;;;;;1.40;1.00;;;19.70;47.60;;;;;;6174055;28;20098;-73
2022/04/19 01:30:58;;;;;;;1.75;1.10;;;19.70;47.60;;;;;;6157421;28;20043;-72
2022/04/19 01:33:59;;;;;;;1.02;0.80;;;19.70;47.60;;;;;;6150872;28;20390;-73
2022/04/19 01:36:59;;;;;;;1.15;0.88;;;19.70;47.60;;;;;;6149952;29;20032;-71
2022/04/19 01:40:16;;;;;;;1.60;1.00;;;19.70;47.50;;;;;;6149933;29;20382;-72
2022/04/19 01:43:17;;;;;;;0.98;0.85;;;19.70;47.50;;;;;;6149574;29;20043;-72
2022/04/19 01:46:17;;;;;;;1.27;1.02;;;19.70;47.50;;;;;;6150372;28;20118;-73
2022/04/19 01:49:18;;;;;;;2.03;1.20;;;19.70;47.50;;;;;;6153176;28;20038;-72
2022/04/19 01:52:18;;;;;;;1.65;1.00;;;19.70;47.50;;;;;;6149801;28;20086;-72
2022/04/19 01:55:20;;;;;;;1.20;0.77;;;19.70;47.50;;;;;;6169615;28;20497;-72
2022/04/19 01:58:20;;;;;;;1.13;0.77;;;19.70;47.50;;;;;;6172814;28;20023;-73
2022/04/19 02:01:21;;;;;;;1.55;0.90;;;19.70;47.50;;;;;;6173193;28;20541;-72
2022/04/19 02:04:21;;;;;;;1.30;0.82;;;19.70;47.50;;;;;;6173604;28;20035;-72
2022/04/19 02:07:22;;;;;;;1.70;1.15;;;19.70;47.60;;;;;;6173797;28;20042;-73
2022/04/19 02:10:22;;;;;;;1.33;0.98;;;19.70;47.40;;;;;;6173339;28;20030;-72
2022/04/19 02:13:23;;;;;;;1.48;0.98;;;19.70;47.50;;;;;;6173850;28;20027;-72
2022/04/19 02:16:23;;;;;;;1.40;0.82;;;19.70;47.50;;;;;;6172737;28;20081;-72
2022/04/19 02:19:24;;;;;;;1.25;0.88;;;19.70;47.50;;;;;;6171040;28;20027;-72
2022/04/19 02:22:24;;;;;;;1.00;0.85;;;19.70;47.50;;;;;;6172804;28;20023;-72
2022/04/19 02:25:26;;;;;;;0.90;0.75;;;19.70;47.50;;;;;;6173600;28;20031;-72
2022/04/19 02:28:27;;;;;;;1.00;0.70;;;19.70;47.50;;;;;;6172763;28;20549;-72
2022/04/19 02:31:27;;;;;;;0.80;0.73;;;19.70;47.40;;;;;;6152349;28;20031;-72
2022/04/19 02:34:29;;;;;;;1.05;0.75;;;19.70;47.50;;;;;;6148277;29;20089;-73
2022/04/19 02:37:32;;;;;;;1.40;0.80;;;19.70;47.40;;;;;;6148819;29;20031;-71
2022/04/19 02:40:33;;;;;;;1.30;0.88;;;19.70;47.50;;;;;;6148522;29;20026;-73
2022/04/19 02:43:33;;;;;;;1.33;0.80;;;19.70;47.40;;;;;;6143370;29;20055;-72
2022/04/19 02:46:35;;;;;;;1.92;0.80;;;19.70;47.50;;;;;;6124742;29;20035;-72
2022/04/19 02:49:36;;;;;;;1.10;0.80;;;19.70;47.50;;;;;;6124650;29;20035;-72
2022/04/19 02:52:37;;;;;;;1.05;0.85;;;19.70;47.50;;;;;;6124689;28;20039;-74
2022/04/19 02:55:38;;;;;;;1.05;0.80;;;19.70;47.40;;;;;;6171306;28;20509;-72
2022/04/19 02:58:39;;;;;;;1.10;0.80;;;19.70;47.50;;;;;;6171906;28;20655;-71
2022/04/19 03:01:39;;;;;;;1.13;0.60;;;19.70;47.40;;;;;;6172110;28;20053;-73
2022/04/19 03:04:41;;;;;;;0.93;0.70;;;19.70;47.40;;;;;;6171905;28;20503;-74
2022/04/19 03:07:41;;;;;;;1.10;0.85;;;19.70;47.40;;;;;;6171550;28;20045;-73
2022/04/19 03:10:42;;;;;;;1.58;0.80;;;19.70;47.40;;;;;;6172636;28;20386;-73
2022/04/19 03:13:43;;;;;;;1.15;0.77;;;19.70;47.50;;;;;;6171976;28;20027;-72
2022/04/19 03:16:44;;;;;;;0.63;0.63;;;19.70;47.40;;;;;;6171001;28;20061;-70
2022/04/19 03:19:45;;;;;;;1.05;0.82;;;19.70;47.50;;;;;;6172231;28;20034;-73
2022/04/19 03:29:23;;;;;;;2.22;1.00;;;19.70;47.30;;;;;;6167671;28;20042;-72
2022/04/19 03:32:23;;;;;;;1.05;0.80;;;19.70;47.30;;;;;;6147194;29;20493;-73
2022/04/19 03:35:24;;;;;;;0.63;0.57;;;19.70;47.30;;;;;;6147285;29;20031;-72
2022/04/19 03:38:25;;;;;;;1.38;0.80;;;19.70;47.30;;;;;;6147171;29;20074;-72
2022/04/19 03:41:57;;;;;;;0.75;0.60;;;19.70;47.30;;;;;;6147192;29;20383;-73
2022/04/19 03:44:58;;;;;;;1.05;0.85;;;19.70;47.40;;;;;;6130951;29;20062;-73
2022/04/19 03:48:00;;;;;;;1.08;0.73;;;19.70;47.30;;;;;;6122049;29;20360;-73
2022/04/19 03:51:02;;;;;;;0.65;0.55;;;19.70;47.20;;;;;;6123544;29;20515;-72
2022/04/19 03:54:02;;;;;;;0.98;0.60;;;19.70;47.30;;;;;;6144270;28;20035;-72
2022/04/19 03:57:08;;;;;;;0.80;0.70;;;19.70;47.20;;;;;;6170759;28;20031;-72
2022/04/19 04:00:09;;;;;;;0.57;0.50;;;19.70;47.20;;;;;;6170664;28;20070;-72
2022/04/19 04:03:10;;;;;;;1.30;0.73;;;19.70;47.30;;;;;;6169288;28;20027;-73
2022/04/19 04:06:11;;;;;;;0.88;0.77;;;19.70;47.20;;;;;;6170753;28;20047;-73
2022/04/19 04:09:11;;;;;;;1.45;1.00;;;19.70;47.30;;;;;;6170816;28;20030;-73
2022/04/19 04:12:12;;;;;;;1.10;0.80;;;19.70;47.10;;;;;;6170990;28;20387;-74
2022/04/19 04:15:13;;;;;;;1.13;0.95;;;19.70;47.20;;;;;;6170651;28;20063;-71
2022/04/19 04:18:13;;;;;;;1.15;0.80;;;19.70;47.20;;;;;;6171016;28;20495;-72
2022/04/19 04:21:14;;;;;;;1.42;1.00;;;19.70;47.10;;;;;;6174225;28;20379;-73
2022/04/19 04:24:14;;;;;;;1.48;1.05;;;19.70;47.20;;;;;;6175725;28;20186;-73
2022/04/19 04:27:15;;;;;;;0.90;0.73;;;19.70;47.10;;;;;;6175689;28;20043;-72
2022/04/19 04:30:15;;;;;;;0.95;0.80;;;19.70;46.90;;;;;;6164716;28;20402;-73
2022/04/19 04:33:16;;;;;;;1.42;0.95;;;19.70;47.00;;;;;;6155251;28;20370;-73
2022/04/19 04:36:17;;;;;;;1.48;0.85;;;19.70;47.00;;;;;;6175008;28;20167;-72
2022/04/19 04:39:17;;;;;;;1.50;0.98;;;19.70;47.20;;;;;;6175327;28;20019;-72
2022/04/19 04:42:18;;;;;;;1.20;0.90;;;19.70;47.00;;;;;;6174627;28;20114;-73
2022/04/19 04:45:18;;;;;;;1.20;0.80;;;19.70;47.00;;;;;;6136876;28;20032;-73
2022/04/19 04:51:38;;;;;;;1.35;0.85;;;19.70;46.90;;;;;;6128207;28;20129;-72
2022/04/19 04:54:41;;;;;;;1.10;1.00;;;19.70;46.90;;;;;;6158120;28;20029;-73
2022/04/19 04:57:41;;;;;;;1.73;1.00;;;19.70;46.80;;;;;;6162801;28;20529;-73
2022/04/19 05:00:42;;;;;;;4.75;1.20;;;19.80;46.80;;;;;;6150282;28;20101;-74
2022/04/19 05:03:42;;;;;;;1.40;0.95;;;19.80;46.70;;;;;;6135632;28;20086;-72
2022/04/19 05:06:43;;;;;;;1.73;0.95;;;19.80;46.60;;;;;;6149191;29;20035;-73
2022/04/19 05:09:43;;;;;;;1.60;1.10;;;19.80;46.50;;;;;;6153532;28;20035;-71
2022/04/19 05:12:44;;;;;;;2.97;1.13;;;19.80;46.40;;;;;;6173678;28;20034;-73
2022/04/19 05:15:44;;;;;;;1.58;1.17;;;19.80;46.30;;;;;;6173363;28;20764;-74
2022/04/19 05:18:45;;;;;;;4.22;1.10;;;19.80;46.30;;;;;;6172971;28;20023;-72
2022/04/19 05:21:45;;;;;;;2.88;1.30;;;19.90;46.30;;;;;;6126202;28;20027;-74
2022/04/19 05:24:46;;;;;;;2.63;1.20;;;19.90;46.30;;;;;;6108939;28;20027;-72
2022/04/19 05:27:46;;;;;;;1.02;0.80;;;19.90;46.20;;;;;;6125063;29;20518;-73
2022/04/19 05:30:47;;;;;;;1.45;1.20;;;19.90;46.10;;;;;;6131869;28;20030;-74
2022/04/19 05:33:47;;;;;;;2.00;1.17;;;19.90;46.10;;;;;;6172957;28;20039;-72
2022/04/19 05:36:48;;;;;;;3.30;1.05;;;19.90;46.10;;;;;;6155170;28;21675;-72
2022/04/19 05:39:49;;;;;;;3.00;1.45;;;19.90;45.90;;;;;;6116935;28;20075;-73
2022/04/19 05:42:49;;;;;;;2.17;1.20;;;19.90;46.20;;;;;;6148680;28;20038;-73
2022/04/19 05:45:50;;;;;;;1.52;1.25;;;19.90;46.10;;;;;;6148018;28;20070;-74
2022/04/19 05:48:50;;;;;;;2.38;1.42;;;20.00;46.00;;;;;;6148647;28;20111;-73
2022/04/19 05:51:51;;;;;;;2.90;1.23;;;20.00;45.80;;;;;;6147406;28;20423;-73
2022/04/19 05:54:51;;;;;;;8.85;1.30;;;20.00;46.00;;;;;;6147372;28;20031;-72
2022/04/19 05:57:52;;;;;;;2.17;1.20;;;20.00;45.70;;;;;;6148310;28;20046;-72
2022/04/19 06:00:52;;;;;;;2.33;1.42;;;20.10;45.70;;;;;;6144200;28;20050;-70
2022/04/19 06:07:12;;;;;;;3.30;1.40;;;20.10;45.80;;;;;;6150964;28;20031;-68
2022/04/19 06:10:14;;;;;;;2.40;1.48;;;20.20;45.80;;;;;;6151026;28;20027;-69
2022/04/19 06:13:15;;;;;;;5.93;1.40;;;20.30;46.00;;;;;;6150995;28;20075;-68
2022/04/19 06:16:15;;;;;;;6.90;1.63;;;20.30;46.10;;;;;;6151048;29;20090;-67
2022/04/19 06:19:16;;;;;;;6.40;2.15;;;20.30;46.80;;;;;;6150811;28;20054;-68
2022/04/19 06:22:16;;;;;;;7.07;2.08;;;20.30;46.70;;;;;;6150529;28;20055;-68
2022/04/19 06:25:17;;;;;;;11.02;2.53;;;20.30;46.20;;;;;;6150638;29;20062;-69
2022/04/19 06:28:18;;;;;;;9.32;2.40;;;20.30;45.80;;;;;;6150563;29;20031;-67
2022/04/19 06:31:18;;;;;;;8.25;1.92;;;20.40;45.70;;;;;;6150044;28;20038;-72
2022/04/19 06:34:19;;;;;;;11.63;2.05;;;20.40;45.80;;;;;;6149772;29;20502;-71
2022/04/19 06:37:22;;;;;;;7.75;2.17;;;20.30;45.70;;;;;;6149915;29;20047;-72
2022/04/19 06:40:23;;;;;;;8.05;2.50;;;20.30;45.70;;;;;;6150451;29;20031;-72
2022/04/19 06:43:24;;;;;;;11.55;2.20;;;20.30;45.70;;;;;;6145584;28;20387;-69
2022/04/19 06:46:25;;;;;;;8.02;2.65;;;20.30;45.30;;;;;;6138008;28;20126;-71
2022/04/19 06:49:26;;;;;;;7.13;2.50;;;20.40;46.00;;;;;;6150199;28;20063;-71
2022/04/19 06:52:26;;;;;;;11.15;2.22;;;20.30;45.80;;;;;;6150159;28;20143;-71
2022/04/19 06:55:27;;;;;;;8.05;2.90;;;20.30;45.60;;;;;;6149696;28;20070;-72
2022/04/19 06:58:27;;;;;;;8.18;2.63;;;20.30;45.60;;;;;;6149737;28;20027;-72
2022/04/19 07:01:29;;;;;;;7.10;2.47;;;20.30;45.70;;;;;;6151889;28;20059;-71
2022/04/19 07:04:29;;;;;;;6.47;2.10;;;20.30;45.50;;;;;;6142998;28;20130;-71
2022/04/19 07:07:31;;;;;;;4.40;2.00;;;20.30;45.90;;;;;;6127171;28;20565;-71
2022/04/19 07:10:33;;;;;;;10.65;2.65;;;20.20;45.90;;;;;;6125647;29;20023;-70
2022/04/19 07:13:34;;;;;;;11.13;2.42;;;20.20;46.00;;;;;;6126067;29;20024;-70
2022/04/19 07:16:34;;;;;;;3.47;2.08;;;20.20;46.00;;;;;;6125913;29;20095;-70
2022/04/19 07:29:32;;;;;;;5.95;2.08;;;20.10;45.70;;;;;;6148046;28;20031;-71
2022/04/19 07:32:33;;;;;;;4.35;2.10;;;20.10;45.70;;;;;;6148464;29;20070;-70
2022/04/19 07:35:33;;;;;;;3.67;1.92;;;20.20;45.90;;;;;;6155659;28;20330;-71
2022/04/19 07:38:34;;;;;;;4.13;2.00;;;20.10;45.80;;;;;;6172060;28;20247;-71
2022/04/19 07:41:37;;;;;;;3.88;1.90;;;20.10;45.90;;;;;;6170066;28;20030;-70
2022/04/19 07:44:41;;;;;;;5.85;1.90;;;20.10;45.90;;;;;;6141117;28;20031;-70
2022/04/19 07:47:41;;;;;;;8.25;2.28;;;20.10;45.90;;;;;;6146574;28;20050;-71
2022/04/19 07:50:43;;;;;;;2.72;1.60;;;20.10;45.80;;;;;;6171846;28;20379;-70
2022/04/19 07:53:43;;;;;;;5.85;2.05;;;20.10;45.80;;;;;;6171881;28;20058;-70
2022/04/19 07:56:44;;;;;;;3.30;1.88;;;20.20;45.80;;;;;;6165049;28;20485;-71
2022/04/19 07:59:44;;;;;;;3.00;1.85;;;20.10;45.70;;;;;;6147409;28;20546;-70
2022/04/19 08:02:48;;;;;;;3.42;2.00;;;20.10;45.70;;;;;;6157935;28;20043;-70
2022/04/19 08:05:50;;;;;;;3.00;1.83;;;20.10;45.70;;;;;;6147697;28;20306;-70
2022/04/19 08:08:51;;;;;;;4.43;1.67;;;20.10;45.80;;;;;;6147462;28;20541;-70
2022/04/19 08:11:52;;;;;;;4.90;1.85;;;20.10;45.90;;;;;;6147755;28;20031;-70
2022/04/19 08:14:54;;;;;;;4.22;1.75;;;20.10;45.90;;;;;;6147612;28;20046;-71
2022/04/19 08:17:55;;;;;;;3.50;1.70;;;20.10;45.90;;;;;;6147741;28;20034;-71
2022/04/19 08:20:56;;;;;;;5.68;1.92;;;20.10;45.90;;;;;;6127556;28;20098;-70
2022/04/19 08:23:56;;;;;;;3.70;1.80;;;20.10;45.90;;;;;;6129557;28;21989;-70
2022/04/19 08:26:57;;;;;;;3.67;1.92;;;20.10;45.90;;;;;;6123813;29;20073;-70
2022/04/19 08:29:57;;;;;;;5.13;1.70;;;20.10;45.90;;;;;;6131399;28;20031;-71
2022/04/19 08:32:58;;;;;;;4.72;1.58;;;20.10;45.80;;;;;;6128727;28;20498;-70
2022/04/19 08:36:00;;;;;;;3.78;1.70;;;20.10;44.80;;;;;;6142039;29;20500;-71
2022/04/19 08:39:01;;;;;;;2.70;1.80;;;20.10;44.40;;;;;;6167896;28;20026;-70
2022/04/19 08:42:06;;;;;;;4.15;1.80;;;20.10;44.80;;;;;;6170516;28;20441;-71
2022/04/19 08:45:08;;;;;;;2.75;1.65;;;20.10;44.70;;;;;;6136889;28;20098;-70
2022/04/19 08:48:10;;;;;;;4.15;1.88;;;20.10;44.10;;;;;;6146126;28;20087;-70
2022/04/19 08:51:13;;;;;;;5.50;2.10;;;20.10;42.70;;;;;;6146571;28;20034;-71
2022/04/19 08:57:34;;;;;;;6.38;1.50;;;20.00;40.70;;;;;;6132170;28;20040;-70
2022/04/19 09:00:34;;;;;;;5.50;2.00;;;20.10;40.00;;;;;;6136716;28;20087;-70
2022/04/19 09:03:37;;;;;;;5.35;1.55;;;20.10;39.80;;;;;;6146091;28;20093;-70
2022/04/19 09:07:00;;;;;;;3.08;1.60;;;20.10;40.20;;;;;;6149104;28;20080;-71
2022/04/19 09:10:01;;;;;;;3.95;1.65;;;20.10;40.70;;;;;;6150580;28;20406;-70
2022/04/19 09:13:04;;;;;;;3.47;1.50;;;20.10;41.20;;;;;;6150193;28;20038;-69
2022/04/19 09:16:06;;;;;;;2.78;1.50;;;20.10;41.50;;;;;;6151307;28;20067;-70
2022/04/19 09:19:16;;;;;;;3.25;1.63;;;20.10;41.90;;;;;;6150995;28;20041;-70
2022/04/19 09:22:25;;;;;;;2.65;1.38;;;20.10;42.20;;;;;;6149783;28;20126;-71
2022/04/19 09:25:26;;;;;;;4.78;1.75;;;20.10;42.40;;;;;;6149962;29;20382;-71
2022/04/19 09:28:28;;;;;;;2.65;1.30;;;20.00;42.40;;;;;;6150093;29;20038;-70
2022/04/19 09:31:30;;;;;;;2.35;1.40;;;20.00;43.00;;;;;;6149631;29;20019;-70
2022/04/19 09:34:33;;;;;;;3.08;1.65;;;20.00;43.10;;;;;;6150332;29;20019;-71
2022/04/19 09:37:34;;;;;;;5.20;1.60;;;20.00;43.20;;;;;;6149747;28;20035;-70
2022/04/19 09:40:36;;;;;;;3.10;1.73;;;20.00;43.30;;;;;;6140439;28;20572;-70
2022/04/19 09:43:37;;;;;;;3.83;1.67;;;20.00;43.60;;;;;;6131096;29;20474;-71
2022/04/19 09:46:38;;;;;;;3.42;1.25;;;20.00;43.70;;;;;;6149215;28;20031;-71
2022/04/19 09:49:50;;;;;;;2.85;1.38;;;20.00;43.60;;;;;;6149589;28;20080;-71
2022/04/19 09:52:51;;;;;;;3.95;1.52;;;20.00;43.70;;;;;;6149084;29;20078;-71
2022/04/19 09:55:54;;;;;;;2.50;1.45;;;20.00;44.00;;;;;;6149550;28;20031;-71
2022/04/19 09:58:55;;;;;;;3.38;1.60;;;20.00;44.10;;;;;;6147406;28;20103;-71
2022/04/19 10:08:38;;;;;;;3.15;1.50;;;20.00;44.30;;;;;;6149443;28;20023;-70
2022/04/19 10:11:40;;;;;;;2.70;1.30;;;20.00;44.20;;;;;;6149028;28;20024;-71
2022/04/19 10:14:45;;;;;;;3.47;1.83;;;20.00;44.30;;;;;;6147204;28;20043;-71
2022/04/19 10:17:46;;;;;;;;;;;20.00;44.30;;;;;;6148220;28;20085;-70
2022/04/19 10:20:58;;;;;;;7.50;1.55;;;20.00;44.30;;;;;;6148795;28;19910;-71
2022/04/19 10:24:13;;;;;;;3.70;1.58;;;20.00;44.40;;;;;;6148552;28;20242;-72
2022/04/19 10:27:13;;;;;;;2.45;1.42;;;20.00;44.60;;;;;;6148852;28;20027;-71
2022/04/19 10:30:20;;;;;;;3.15;1.73;;;20.00;44.60;;;;;;6148610;28;20039;-72
2022/04/19 10:33:39;;;;;;;2.50;1.50;;;20.00;44.60;;;;;;6148613;28;20035;-70
2022/04/19 10:36:40;;;;;;;2.47;1.30;;;20.00;44.60;;;;;;6149775;28;20027;-72
2022/04/19 10:39:52;;;;;;;2.53;1.42;;;20.00;44.70;;;;;;6171917;28;20026;-71
2022/04/19 10:43:13;;;;;;;2.60;1.25;;;20.00;44.80;;;;;;6171641;28;20033;-71
2022/04/19 10:46:21;;;;;;;2.95;1.48;;;20.00;44.80;;;;;;6134352;28;20050;-71
2022/04/19 10:49:25;;;;;;;4.72;1.42;;;20.00;44.90;;;;;;6148131;28;20494;-70
2022/04/19 10:52:38;;;;;;;2.95;1.70;;;19.90;44.80;;;;;;6148704;29;20110;-71
2022/04/19 10:55:40;;;;;;;2.58;1.40;;;20.00;44.90;;;;;;6147554;28;20106;-71
2022/04/19 10:58:42;;;;;;;1.95;1.23;;;19.90;44.90;;;;;;6126134;28;20370;-70
2022/04/19 11:01:43;;;;;;;1.83;1.33;;;20.00;45.00;;;;;;6133187;28;20528;-70
2022/04/19 11:04:43;;;;;;;1.80;1.30;;;19.90;45.00;;;;;;6147083;28;20027;-71
2022/04/19 11:07:44;;;;;;;3.42;1.52;;;19.90;44.90;;;;;;6146861;28;20054;-71
2022/04/19 11:10:45;;;;;;;2.60;1.45;;;19.90;45.00;;;;;;6147763;29;20023;-71
2022/04/19 11:14:21;;;;;;;2.80;1.63;;;19.90;45.00;;;;;;6147460;29;20390;-71
2022/04/19 11:17:29;;;;;;;2.10;1.30;;;19.90;45.10;;;;;;6147925;28;20027;-71
2022/04/19 11:20:45;;;;;;;2.90;1.60;;;19.90;45.10;;;;;;6146708;29;20032;-72
2022/04/19 11:23:48;;;;;;;1.80;1.40;;;19.90;45.10;;;;;;6145907;28;20114;-71
2022/04/19 11:26:49;;;;;;;2.05;1.27;;;19.90;45.20;;;;;;6147081;28;20042;-71
2022/04/19 11:29:51;;;;;;;1.95;1.20;;;19.90;45.20;;;;;;6162007;28;20027;-71
2022/04/19 11:32:55;;;;;;;1.75;1.13;;;19.90;45.20;;;;;;6141100;28;20027;-70
2022/04/19 11:36:10;;;;;;;2.30;1.67;;;19.90;45.20;;;;;;6127768;28;20135;-70
2022/04/19 11:49:38;;;;;;;2.10;1.27;;;19.90;45.30;;;;;;6161738;28;20038;-70
2022/04/19 11:52:38;;;;;;;2.15;1.20;;;19.90;45.30;;;;;;6170270;28;20031;-72
2022/04/19 11:55:50;;;;;;;4.93;1.58;;;19.90;45.30;;;;;;6164556;28;20031;-70
2022/04/19 11:58:52;;;;;;;2.40;1.20;;;19.90;45.40;;;;;;6146453;28;20028;-71
2022/04/19 12:01:53;;;;;;;4.22;1.77;;;19.90;45.30;;;;;;6147382;28;20116;-71
2022/04/19 12:04:56;;;;;;;2.35;1.55;;;19.90;45.30;;;;;;6146656;28;20035;-71
2022/04/19 12:07:57;;;;;;;2.88;1.40;;;19.90;45.40;;;;;;6134505;28;20075;-71
2022/04/19 12:10:59;;;;;;;3.03;1.48;;;19.90;45.40;;;;;;6144119;28;20159;-71
2022/04/19 12:13:59;;;;;;;1.67;1.40;;;19.90;45.40;;;;;;6138158;28;20478;-71
2022/04/19 12:17:02;;;;;;;2.60;1.33;;;19.90;45.40;;;;;;6122422;29;20028;-71
2022/04/19 12:20:04;;;;;;;2.10;1.25;;;19.90;45.50;;;;;;6123264;29;20455;-71
2022/04/19 12:23:15;;;;;;;1.38;1.10;;;19.90;45.50;;;;;;6136650;29;20485;-70
2022/04/19 12:26:15;;;;;;;1.80;1.35;;;19.90;45.50;;;;;;6151697;28;20035;-70
2022/04/19 12:29:16;;;;;;;1.80;1.10;;;19.90;45.50;;;;;;6167839;28;20027;-72
2022/04/19 12:32:17;;;;;;;3.05;1.40;;;19.90;45.60;;;;;;6147123;29;20050;-72
2022/04/19 12:35:22;;;;;;;2.67;1.52;;;19.90;45.60;;;;;;6146615;28;20026;-71
2022/04/19 12:38:30;;;;;;;;;;;19.90;45.60;;;;;;6138171;28;20027;-71
2022/04/19 12:41:36;;;;;;;2.42;1.23;;;19.90;45.60;;;;;;6127072;29;19911;-70
2022/04/19 12:44:40;;;;;;;2.30;1.38;;;19.90;45.70;;;;;;6151139;28;20059;-70
2022/04/19 12:47:49;;;;;;;2.28;1.30;;;19.90;45.80;;;;;;6150625;28;20038;-70
2022/04/19 12:51:03;;;;;;;2.28;1.27;;;19.90;45.70;;;;;;6151737;28;20406;-72
2022/04/19 12:54:08;;;;;;;2.17;1.40;;;19.90;45.70;;;;;;6132812;28;20036;-71
2022/04/19 12:57:14;;;;;;;2.42;1.42;;;19.90;45.80;;;;;;6136442;28;20545;-72
2022/04/19 13:00:14;;;;;;;1.75;1.30;;;19.90;45.80;;;;;;6154561;28;20490;-71
2022/04/19 13:03:16;;;;;;;1.80;1.30;;;19.90;45.80;;;;;;6175195;28;20086;-70
2022/04/19 13:12:55;;;;;;;1.70;1.08;;;19.90;45.80;;;;;;6174462;28;20039;-71
2022/04/19 13:15:56;;;;;;;2.05;1.30;;;19.90;45.80;;;;;;6128459;28;20042;-70
2022/04/19 13:18:56;;;;;;;2.45;1.02;;;19.90;45.90;;;;;;6152817;28;20039;-71
2022/04/19 13:21:57;;;;;;;1.42;1.10;;;19.90;46.00;;;;;;6149323;28;20086;-71
2022/04/19 13:24:58;;;;;;;1.85;1.30;;;19.90;45.90;;;;;;6149129;28;20020;-70
2022/04/19 13:27:58;;;;;;;2.50;1.30;;;19.90;46.00;;;;;;6149903;29;20042;-71
2022/04/19 13:30:59;;;;;;;2.28;1.23;;;19.90;46.00;;;;;;6149843;28;20328;-71
2022/04/19 13:33:59;;;;;;;2.22;1.17;;;19.90;46.10;;;;;;6150184;29;20035;-71
2022/04/19 13:37:01;;;;;;;2.17;1.27;;;19.90;46.10;;;;;;6147769;28;20019;-71
2022/04/19 13:40:01;;;;;;;1.50;0.95;;;19.90;46.10;;;;;;6148441;28;20478;-71
2022/04/19 13:43:02;;;;;;;2.13;1.30;;;19.90;46.10;;;;;;6149930;28;20361;-71
2022/04/19 13:46:03;;;;;;;2.22;1.00;;;19.90;46.10;;;;;;6148791;28;20490;-72
2022/04/19 13:49:04;;;;;;;1.98;1.25;;;19.90;46.00;;;;;;6164460;28;20033;-71
2022/04/19 13:52:04;;;;;;;2.85;1.20;;;19.90;46.10;;;;;;6149247;28;20027;-71
2022/04/19 13:55:06;;;;;;;2.10;1.40;;;19.90;46.10;;;;;;6150017;28;20135;-72
2022/04/19 13:58:07;;;;;;;1.60;1.00;;;19.90;46.10;;;;;;6148934;28;20059;-71
2022/04/19 14:01:08;;;;;;;1.90;1.20;;;19.90;46.10;;;;;;6149456;28;20418;-72
2022/04/19 14:04:08;;;;;;;1.50;1.02;;;19.90;46.20;;;;;;6149533;28;20023;-71
2022/04/19 14:07:11;;;;;;;1.88;0.93;;;19.90;46.30;;;;;;6148239;28;20042;-71
2022/04/19 14:10:12;;;;;;;1.30;1.02;;;19.90;46.30;;;;;;6148959;28;20114;-71
2022/04/19 14:13:12;;;;;;;2.20;1.20;;;19.90;46.90;;;;;;6147161;28;20375;-71
2022/04/19 14:16:13;;;;;;;2.25;1.50;;;19.90;46.30;;;;;;6125581;29;20023;-71
2022/04/19 14:19:14;;;;;;;1.92;1.35;;;19.90;46.30;;;;;;6124967;29;20027;-71
2022/04/19 14:22:15;;;;;;;1.85;1.27;;;19.90;46.30;;;;;;6132820;29;20042;-72
2022/04/19 14:25:16;;;;;;;1.50;1.20;;;19.90;46.30;;;;;;6148436;29;20486;-72
2022/04/19 14:28:17;;;;;;;1.48;1.05;;;19.90;46.30;;;;;;6149036;29;20076;-72
2022/04/19 14:34:37;;;;;;;1.85;1.20;;;19.90;46.30;;;;;;6149589;29;20023;-72
2022/04/19 14:37:37;;;;;;;1.85;1.10;;;19.90;46.40;;;;;;6148184;29;20501;-71
2022/04/19 14:40:38;;;;;;;1.00;0.90;;;19.90;46.30;;;;;;6148431;29;20430;-72
2022/04/19 14:43:39;;;;;;;2.25;1.33;;;19.90;46.40;;;;;;6142824;29;20024;-71
2022/04/19 14:46:39;;;;;;;1.83;1.10;;;19.90;46.40;;;;;;6138326;28;20472;-70
2022/04/19 14:49:40;;;;;;;1.77;1.25;;;19.90;46.40;;;;;;6148017;28;20031;-71
2022/04/19 14:52:40;;;;;;;2.05;1.10;;;19.90;46.50;;;;;;6148376;28;20147;-72
2022/04/19 14:55:42;;;;;;;1.23;0.93;;;19.90;46.50;;;;;;6148079;28;20023;-71
2022/04/19 14:58:43;;;;;;;1.58;1.10;;;19.90;46.50;;;;;;6147147;28;20023;-71
2022/04/19 15:01:44;;;;;;;5.22;1.20;;;19.90;46.50;;;;;;6147033;28;20055;-72
2022/04/19 15:04:45;;;;;;;1.20;0.95;;;19.90;46.50;;;;;;6146374;28;20023;-70
2022/04/19 15:07:46;;;;;;;1.45;1.25;;;19.90;46.50;;;;;;6146821;28;20031;-71
2022/04/19 15:10:46;;;;;;;1.98;1.25;;;19.90;46.50;;;;;;6161524;28;20548;-71
2022/04/19 15:13:47;;;;;;;1.50;0.80;;;19.90;46.60;;;;;;6140311;28;20031;-71
2022/04/19 15:16:48;;;;;;;1.58;1.20;;;19.90;46.50;;;;;;6123174;28;20028;-70
2022/04/19 15:19:48;;;;;;;1.17;1.00;;;19.90;46.50;;;;;;6146030;28;20025;-72
2022/04/19 15:22:49;;;;;;;1.40;1.00;;;19.90;46.50;;;;;;6145623;29;20024;-72
2022/04/19 15:25:50;;;;;;;1.95;1.50;;;19.90;46.60;;;;;;6144644;28;20431;-71
2022/04/19 15:28:51;;;;;;;1.90;1.20;;;19.90;46.60;;;;;;6145955;28;20035;-71
2022/04/19 15:31:51;;;;;;;1.63;1.10;;;19.90;46.70;;;;;;6146316;29;20031;-71
2022/04/19 15:34:53;;;;;;;1.10;1.00;;;19.90;46.70;;;;;;6158274;28;20031;-71
2022/04/19 15:37:54;;;;;;;2.25;1.20;;;19.90;46.60;;;;;;6169707;28;20161;-71
2022/04/19 15:40:55;;;;;;;1.85;1.20;;;19.80;46.60;;;;;;6169472;28;20104;-71
2022/04/19 15:43:55;;;;;;;1.67;1.23;;;19.90;46.60;;;;;;6154342;28;20027;-72
2022/04/19 15:46:58;;;;;;;1.50;1.10;;;19.90;46.70;;;;;;6138160;28;20047;-71
2022/04/19 15:49:58;;;;;;;1.13;1.02;;;19.90;46.70;;;;;;6146163;28;20466;-71
2022/04/19 15:52:59;;;;;;;1.52;1.30;;;19.80;46.60;;;;;;6145996;28;20038;-71
2022/04/19 15:56:01;;;;;;;1.77;1.30;;;19.80;46.60;;;;;;6145992;28;20042;-71
2022/04/19 15:59:04;;;;;;;2.22;1.20;;;19.90;46.70;;;;;;6142334;28;106313;-71
2022/04/19 16:02:05;;;;;;;4.20;1.70;;;19.90;46.70;;;;;;6159835;28;20074;-71
2022/04/19 16:05:07;;;;;;;3.80;1.73;;;19.90;46.70;;;;;;6146984;28;20038;-72
2022/04/19 16:08:08;;;;;;;3.55;1.80;;;19.80;46.70;;;;;;6146434;28;20028;-72
2022/04/19 16:11:08;;;;;;;4.72;2.10;;;19.90;46.70;;;;;;6146648;28;20028;-71
2022/04/19 16:14:09;;;;;;;5.13;2.45;;;19.90;46.70;;;;;;6135831;28;20032;-72
2022/04/19 16:23:49;;;;;;;9.68;3.88;;;19.90;46.80;;;;;;6121020;29;20036;-72
2022/04/19 16:26:51;;;;;;;8.90;3.63;;;19.80;46.70;;;;;;6120639;29;20071;-71
2022/04/19 16:29:51;;;;;;;7.88;3.80;;;19.80;46.70;;;;;;6127378;28;20118;-71
2022/04/19 16:32:52;;;;;;;12.90;4.68;;;19.80;46.70;;;;;;6144486;29;20034;-71
2022/04/19 16:35:53;;;;;;;11.07;4.57;;;19.90;46.80;;;;;;6159831;28;20496;-71
2022/04/19 16:38:53;;;;;;;12.77;5.13;;;19.80;46.80;;;;;;6168111;28;20533;-72
2022/04/19 16:41:54;;;;;;;12.35;4.97;;;19.90;46.80;;;;;;6168888;28;20026;-72
2022/04/19 16:44:55;;;;;;;14.85;5.47;;;19.80;46.70;;;;;;6136249;28;20087;-71
2022/04/19 16:47:56;;;;;;;11.05;4.93;;;19.90;46.80;;;;;;6140832;28;20070;-71
2022/04/19 16:50:56;;;;;;;14.77;5.68;;;19.90;46.90;;;;;;6143650;28;20688;-71
2022/04/19 16:53:57;;;;;;;15.05;5.50;;;19.80;46.80;;;;;;6143718;28;20023;-71